Time;durP1;ratioP1;P1;durP2;ratioP2;P2;SDS_P1;SDS_P2;PMS_P1;PMS_P2;Temp;Humidity;BMP_temperature;BMP_pressure;BME280_temperature;BME280_humidity;BME280_pressure;Samples;Min_cycle;Max_cycle;Signal;HPM_P1;HPM_P2
2021/04/05 00:01:25;;;;;;;10.63;4.88;;;7.60;90.70;;;;;;4986497;28;20627;-78
2021/04/05 00:03:50;;;;;;;9.93;5.15;;;7.60;90.80;;;;;;4994605;28;20026;-78
2021/04/05 00:06:18;;;;;;;8.90;4.40;;;7.50;90.90;;;;;;4984324;28;20446;-78
2021/04/05 00:08:44;;;;;;;8.43;5.07;;;7.50;90.90;;;;;;4982849;28;20026;-78
2021/04/05 00:11:10;;;;;;;8.75;5.15;;;7.50;91.10;;;;;;4991396;28;20121;-79
2021/04/05 00:13:38;;;;;;;9.07;5.10;;;7.40;91.10;;;;;;4992875;28;20113;-78
2021/04/05 00:16:04;;;;;;;9.02;4.90;;;7.40;91.20;;;;;;4993167;28;20030;-77
2021/04/05 00:18:29;;;;;;;11.32;5.32;;;7.40;91.30;;;;;;4984240;28;20080;-78
2021/04/05 00:21:02;;;;;;;10.95;5.43;;;7.40;91.50;;;;;;4988241;28;20555;-77
2021/04/05 00:23:27;;;;;;;9.85;4.97;;;7.40;91.40;;;;;;4990957;28;20022;-78
2021/04/05 00:25:53;;;;;;;9.82;5.45;;;7.30;91.60;;;;;;4987852;28;20115;-77
2021/04/05 00:28:18;;;;;;;11.95;5.45;;;7.30;91.70;;;;;;4992475;28;20038;-78
2021/04/05 00:30:44;;;;;;;8.15;5.53;;;7.30;91.80;;;;;;4978627;28;20054;-78
2021/04/05 00:33:11;;;;;;;9.73;5.47;;;7.30;91.90;;;;;;4991673;28;20080;-78
2021/04/05 00:35:38;;;;;;;12.63;6.00;;;7.30;91.90;;;;;;4987700;28;20420;-77
2021/04/05 00:38:08;;;;;;;12.55;6.88;;;7.30;92.00;;;;;;4990178;28;20357;-78
2021/04/05 00:40:37;;;;;;;11.30;6.53;;;7.30;92.00;;;;;;4988819;28;20023;-78
2021/04/05 00:43:07;;;;;;;15.75;7.07;;;7.20;92.20;;;;;;4991945;28;20064;-78
2021/04/05 00:45:34;;;;;;;13.80;7.40;;;7.20;92.40;;;;;;4980477;28;20080;-78
2021/04/05 00:48:01;;;;;;;16.00;7.57;;;7.10;92.50;;;;;;4989976;28;20030;-78
2021/04/05 00:50:32;;;;;;;14.32;7.65;;;7.10;92.70;;;;;;4990823;28;20026;-78
2021/04/05 00:52:58;;;;;;;19.17;8.43;;;7.00;92.70;;;;;;4975075;28;20413;-78
2021/04/05 00:55:27;;;;;;;16.60;7.82;;;7.00;92.80;;;;;;4974661;28;20497;-78
2021/04/05 00:57:55;;;;;;;16.05;8.20;;;7.00;92.80;;;;;;4990530;28;20042;-78
2021/04/05 01:00:44;;;;;;;17.75;8.02;;;6.90;92.90;;;;;;4985927;28;20030;-78
2021/04/05 01:03:14;;;;;;;12.25;7.03;;;6.90;92.90;;;;;;4982972;28;20077;-78
2021/04/05 01:05:40;;;;;;;15.98;7.15;;;6.80;93.00;;;;;;4979744;28;20054;-78
2021/04/05 01:08:08;;;;;;;17.30;6.80;;;6.80;93.20;;;;;;4987040;28;20113;-78
2021/04/05 01:10:34;;;;;;;16.02;6.28;;;6.80;93.30;;;;;;4991846;28;20050;-77
2021/04/05 01:13:00;;;;;;;12.15;6.50;;;6.80;93.20;;;;;;4986213;28;20108;-78
2021/04/05 01:15:25;;;;;;;10.02;6.18;;;6.80;93.30;;;;;;4991216;28;20040;-77
2021/04/05 01:17:51;;;;;;;10.07;5.18;;;6.80;93.50;;;;;;4988876;28;20026;-77
2021/04/05 01:20:18;;;;;;;9.43;5.45;;;6.70;93.40;;;;;;4990786;28;20022;-78
2021/04/05 01:22:50;;;;;;;9.07;5.00;;;6.70;93.60;;;;;;4988820;28;20034;-77
2021/04/05 01:25:17;;;;;;;11.70;5.35;;;6.70;93.60;;;;;;4985420;28;20489;-77
2021/04/05 01:27:43;;;;;;;10.85;5.32;;;6.70;93.70;;;;;;4990561;28;20521;-77
2021/04/05 01:30:32;;;;;;;12.05;5.03;;;6.60;93.70;;;;;;4987592;28;20028;-78
2021/04/05 01:33:08;;;;;;;7.43;4.70;;;6.60;94.00;;;;;;4987107;28;20489;-78
2021/04/05 01:35:49;;;;;;;10.63;4.82;;;6.60;94.00;;;;;;4980734;28;20030;-78
2021/04/05 01:38:17;;;;;;;8.82;4.32;;;6.60;94.00;;;;;;4988175;28;20018;-77
2021/04/05 01:40:50;;;;;;;9.52;4.72;;;6.50;94.20;;;;;;4984565;28;20054;-77
2021/04/05 01:43:16;;;;;;;9.60;5.13;;;6.50;94.40;;;;;;4980028;28;20143;-77
2021/04/05 01:45:42;;;;;;;11.45;5.45;;;6.50;94.40;;;;;;4990621;28;20116;-78
2021/04/05 01:48:10;;;;;;;10.52;5.80;;;6.50;94.60;;;;;;4990780;28;20049;-78
2021/04/05 01:50:36;;;;;;;10.70;5.15;;;6.40;94.60;;;;;;4990708;28;20018;-78
2021/04/05 01:53:05;;;;;;;9.27;5.18;;;6.40;94.80;;;;;;4990763;28;20034;-78
2021/04/05 01:55:32;;;;;;;9.32;5.63;;;6.40;94.90;;;;;;4991234;28;20025;-78
2021/04/05 01:57:57;;;;;;;9.60;5.38;;;6.40;95.10;;;;;;4981045;28;20037;-78
2021/04/05 02:00:26;;;;;;;10.25;5.93;;;6.30;95.20;;;;;;4990152;28;20489;-78
2021/04/05 02:02:54;;;;;;;12.68;6.20;;;6.40;95.30;;;;;;4981508;28;20026;-77
2021/04/05 02:05:22;;;;;;;14.15;5.22;;;6.40;95.20;;;;;;4983889;28;20092;-77
2021/04/05 02:07:49;;;;;;;16.08;6.20;;;6.40;95.20;;;;;;4986564;28;20039;-77
2021/04/05 02:10:24;;;;;;;12.05;6.32;;;6.40;95.00;;;;;;4983056;28;20113;-77
2021/04/05 02:12:50;;;;;;;10.95;5.88;;;6.40;95.10;;;;;;4989822;28;20039;-77
2021/04/05 02:15:17;;;;;;;12.75;6.30;;;6.40;95.20;;;;;;4990484;28;20385;-78
2021/04/05 02:17:46;;;;;;;12.95;6.90;;;6.40;95.30;;;;;;4986688;28;20490;-78
2021/04/05 02:20:15;;;;;;;16.52;7.85;;;6.40;95.20;;;;;;4991217;28;20038;-79
2021/04/05 02:22:49;;;;;;;15.35;7.00;;;6.40;95.40;;;;;;4987994;28;20088;-77
2021/04/05 02:25:17;;;;;;;16.15;7.53;;;6.40;95.50;;;;;;4986693;28;20035;-77
2021/04/05 02:27:51;;;;;;;17.50;8.88;;;6.40;95.40;;;;;;4989582;28;20035;-77
2021/04/05 02:30:24;;;;;;;14.70;7.38;;;6.50;95.50;;;;;;4990862;28;20030;-77
2021/04/05 02:32:54;;;;;;;19.35;8.25;;;6.40;95.50;;;;;;4987647;28;20485;-77
2021/04/05 02:35:22;;;;;;;17.30;8.25;;;6.50;95.60;;;;;;4971586;28;20026;-78
2021/04/05 02:37:47;;;;;;;20.75;8.27;;;6.50;95.50;;;;;;4987583;28;20039;-78
2021/04/05 02:40:14;;;;;;;21.23;8.13;;;6.50;95.50;;;;;;4990610;28;20354;-78
2021/04/05 02:42:40;;;;;;;15.18;8.25;;;6.50;95.40;;;;;;4988130;28;20497;-78
2021/04/05 02:45:07;;;;;;;13.95;8.02;;;6.40;95.20;;;;;;4990098;28;20042;-78
2021/04/05 02:47:34;;;;;;;29.92;9.50;;;6.40;95.10;;;;;;4977579;28;20034;-78
2021/04/05 02:50:02;;;;;;;20.48;8.27;;;6.30;95.30;;;;;;4984245;28;20605;-78
2021/04/05 02:52:27;;;;;;;19.45;9.15;;;6.40;95.30;;;;;;4980750;28;20089;-77
2021/04/05 02:54:54;;;;;;;16.85;8.20;;;6.30;95.40;;;;;;4986178;28;20571;-78
2021/04/05 02:57:20;;;;;;;22.05;9.35;;;6.30;95.20;;;;;;4989362;28;20023;-77
2021/04/05 02:59:45;;;;;;;18.33;8.60;;;6.40;95.30;;;;;;4986489;28;20576;-78
2021/04/05 03:02:11;;;;;;;16.50;8.65;;;6.40;95.10;;;;;;4981207;28;20113;-77
2021/04/05 03:04:37;;;;;;;17.08;8.73;;;6.30;95.10;;;;;;4986388;28;20049;-78
2021/04/05 03:07:03;;;;;;;17.60;9.00;;;6.30;95.20;;;;;;4990273;28;20462;-78
2021/04/05 03:09:28;;;;;;;25.67;9.27;;;6.30;95.20;;;;;;4985654;28;20968;-78
2021/04/05 03:11:57;;;;;;;17.27;8.93;;;6.30;95.10;;;;;;4980244;28;20027;-77
2021/04/05 03:14:24;;;;;;;18.80;8.68;;;6.30;94.90;;;;;;4985439;28;20100;-77
2021/04/05 03:16:51;;;;;;;17.40;7.97;;;6.30;94.90;;;;;;4989978;28;20126;-78
2021/04/05 03:19:19;;;;;;;20.35;8.77;;;6.30;94.80;;;;;;4988096;28;20061;-78
2021/04/05 03:21:45;;;;;;;18.48;8.13;;;6.30;94.70;;;;;;4988192;28;20050;-78
2021/04/05 03:24:12;;;;;;;19.73;9.07;;;6.30;94.70;;;;;;4989935;28;20030;-78
2021/04/05 03:26:37;;;;;;;18.63;7.97;;;6.30;94.90;;;;;;4990035;28;20031;-78
2021/04/05 03:29:06;;;;;;;17.27;8.35;;;6.30;94.70;;;;;;4990059;28;20485;-78
2021/04/05 03:31:35;;;;;;;19.17;8.98;;;6.30;94.50;;;;;;4988844;28;20030;-78
2021/04/05 03:34:06;;;;;;;14.10;7.43;;;6.30;94.60;;;;;;4985503;28;20026;-77
2021/04/05 03:36:38;;;;;;;19.73;8.75;;;6.30;94.50;;;;;;4989550;28;20057;-77
2021/04/05 03:39:04;;;;;;;;;;;6.40;94.20;;;;;;4984736;28;20064;-77
2021/04/05 03:41:56;;;;;;;15.95;7.65;;;6.30;94.30;;;;;;4982522;28;19964;-77
2021/04/05 03:44:28;;;;;;;16.90;7.47;;;6.30;94.40;;;;;;4989760;28;20037;-78
2021/04/05 03:47:02;;;;;;;17.40;7.65;;;6.40;94.20;;;;;;4989265;28;20057;-78
2021/04/05 03:49:41;;;;;;;14.38;7.32;;;6.40;94.20;;;;;;4988582;28;20065;-77
2021/04/05 03:52:19;;;;;;;15.90;7.90;;;6.40;94.30;;;;;;4988846;28;20125;-78
2021/04/05 03:54:51;;;;;;;17.05;8.13;;;6.30;94.20;;;;;;4989560;28;20366;-78
2021/04/05 03:57:21;;;;;;;15.25;7.82;;;6.40;94.10;;;;;;4980783;28;20031;-77
2021/04/05 03:59:52;;;;;;;16.75;7.70;;;6.40;94.20;;;;;;4985204;28;20038;-77
2021/04/05 04:02:30;;;;;;;17.13;7.68;;;6.40;94.10;;;;;;4987299;28;20022;-77
2021/04/05 04:07:36;;;;;;;27.48;8.13;;;6.40;94.20;;;;;;4975090;28;20030;-78
2021/04/05 04:10:12;;;;;;;18.48;8.85;;;6.50;93.80;;;;;;4989076;28;20035;-77
2021/04/05 04:12:41;;;;;;;16.40;7.75;;;6.50;93.70;;;;;;4988105;28;20370;-78
2021/04/05 04:15:07;;;;;;;22.35;8.68;;;6.50;94.00;;;;;;4988836;28;20037;-78
2021/04/05 04:17:35;;;;;;;20.23;8.52;;;6.50;93.60;;;;;;4988963;28;20038;-78
2021/04/05 04:20:07;;;;;;;20.45;8.45;;;6.50;93.50;;;;;;4988073;28;20045;-78
2021/04/05 04:22:33;;;;;;;22.02;9.25;;;6.60;93.50;;;;;;4984523;28;20034;-78
2021/04/05 04:25:00;;;;;;;25.75;8.88;;;6.50;93.30;;;;;;4989438;28;20122;-77
2021/04/05 04:27:26;;;;;;;21.95;8.77;;;6.60;93.20;;;;;;4957428;28;20019;-77
2021/04/05 04:29:53;;;;;;;17.00;7.68;;;6.60;93.10;;;;;;4989376;28;20029;-78
2021/04/05 04:32:19;;;;;;;22.10;10.20;;;6.60;93.00;;;;;;4987964;28;20054;-77
2021/04/05 04:34:45;;;;;;;24.13;8.75;;;6.60;92.80;;;;;;4989328;28;20136;-78
2021/04/05 04:37:12;;;;;;;23.55;9.38;;;6.60;92.70;;;;;;4989487;28;20022;-77
2021/04/05 04:39:38;;;;;;;20.73;8.75;;;6.70;92.70;;;;;;4990922;28;20508;-78
2021/04/05 04:42:04;;;;;;;23.83;9.77;;;6.70;92.70;;;;;;4991341;28;20033;-78
2021/04/05 04:44:29;;;;;;;21.77;9.85;;;6.70;92.50;;;;;;4992494;28;20606;-78
2021/04/05 04:46:55;;;;;;;24.17;9.95;;;6.70;92.30;;;;;;4990821;28;20125;-78
2021/04/05 04:49:20;;;;;;;20.73;9.68;;;6.80;92.20;;;;;;4985339;28;20026;-77
2021/04/05 04:51:46;;;;;;;23.30;9.20;;;6.80;92.00;;;;;;4987770;28;20047;-78
2021/04/05 04:54:12;;;;;;;20.42;9.00;;;6.80;91.90;;;;;;4990570;28;20039;-77
2021/04/05 04:56:38;;;;;;;26.02;9.85;;;6.90;91.90;;;;;;4992405;28;20045;-78
2021/04/05 04:59:09;;;;;;;21.85;9.98;;;6.80;91.80;;;;;;4992029;28;20026;-77
2021/04/05 05:01:45;;;;;;;24.10;9.77;;;6.90;91.70;;;;;;4984129;28;20038;-79
2021/04/05 05:04:24;;;;;;;22.05;10.13;;;6.90;91.70;;;;;;4989410;28;20871;-77
2021/04/05 05:06:53;;;;;;;21.33;9.48;;;6.90;91.70;;;;;;4992449;28;20430;-77
2021/04/05 05:09:19;;;;;;;22.98;10.07;;;6.90;91.70;;;;;;4985653;28;20057;-78
2021/04/05 05:11:46;;;;;;;22.58;10.20;;;6.90;91.70;;;;;;4988646;28;20026;-77
2021/04/05 05:14:14;;;;;;;24.77;11.25;;;6.80;91.90;;;;;;4991050;28;20124;-77
2021/04/05 05:16:44;;;;;;;22.73;10.45;;;6.80;91.90;;;;;;4992444;28;20023;-78
2021/04/05 05:19:11;;;;;;;27.50;10.93;;;6.90;91.90;;;;;;4990413;28;20657;-77
2021/04/05 05:21:42;;;;;;;24.05;9.82;;;6.90;92.00;;;;;;4989251;28;20113;-73
2021/04/05 05:24:12;;;;;;;23.73;10.27;;;6.90;92.00;;;;;;4980100;28;20121;-77
2021/04/05 05:26:39;;;;;;;23.52;10.13;;;6.90;91.90;;;;;;4989402;28;20056;-74
2021/04/05 05:29:10;;;;;;;24.30;11.73;;;6.90;92.10;;;;;;4987148;28;20034;-73
2021/04/05 05:31:42;;;;;;;23.17;9.38;;;7.00;92.00;;;;;;4989166;28;20026;-73
2021/04/05 05:34:16;;;;;;;26.65;10.27;;;7.00;92.10;;;;;;4966136;28;20034;-73
2021/04/05 05:36:42;;;;;;;24.27;10.70;;;7.00;91.90;;;;;;4990873;28;20374;-75
2021/04/05 05:39:08;;;;;;;23.35;10.52;;;7.00;92.10;;;;;;4988947;28;20038;-74
2021/04/05 05:42:03;;;;;;;23.38;10.55;;;7.00;92.10;;;;;;4987413;28;20485;-74
2021/04/05 05:44:37;;;;;;;28.10;11.10;;;7.00;92.30;;;;;;4989342;28;20350;-74
2021/04/05 05:47:21;;;;;;;26.17;10.65;;;7.00;92.50;;;;;;4970636;28;20413;-75
2021/04/05 05:50:06;;;;;;;25.42;10.90;;;7.10;92.30;;;;;;4986456;28;20493;-74
2021/04/05 05:53:03;;;;;;;26.90;11.55;;;7.10;92.40;;;;;;4988780;28;20038;-72
2021/04/05 05:56:02;;;;;;;25.05;10.82;;;7.10;92.20;;;;;;4980655;28;20042;-72
2021/04/05 05:58:51;;;;;;;29.75;10.63;;;7.10;92.30;;;;;;4987106;28;20023;-72
2021/04/05 06:01:38;;;;;;;22.05;10.73;;;7.20;92.30;;;;;;4985421;28;20043;-72
2021/04/05 06:04:24;;;;;;;29.48;10.70;;;7.20;92.30;;;;;;4969687;28;20045;-71
2021/04/05 06:06:58;;;;;;;28.58;11.45;;;7.20;92.30;;;;;;4989783;28;20022;-71
2021/04/05 06:09:51;;;;;;;24.67;10.95;;;7.30;92.10;;;;;;4981422;28;20089;-72
2021/04/05 06:12:32;;;;;;;22.23;9.65;;;7.30;92.50;;;;;;4980332;28;20030;-72
2021/04/05 06:14:57;;;;;;;26.65;11.70;;;7.20;92.30;;;;;;4985374;28;20088;-71
2021/04/05 06:18:00;;;;;;;27.13;10.90;;;7.30;92.40;;;;;;4984654;28;20050;-71
2021/04/05 06:20:36;;;;;;;25.48;10.63;;;7.30;92.50;;;;;;4988695;28;20030;-72
2021/04/05 06:23:22;;;;;;;27.52;11.15;;;7.40;92.20;;;;;;4985040;28;20524;-71
2021/04/05 06:26:00;;;;;;;25.13;10.02;;;7.40;92.20;;;;;;4984149;28;20038;-72
2021/04/05 06:28:57;;;;;;;27.63;10.77;;;7.40;92.20;;;;;;4988839;28;20030;-72
2021/04/05 06:31:51;;;;;;;25.48;10.35;;;7.50;92.30;;;;;;4990859;28;20081;-74
2021/04/05 06:34:34;;;;;;;25.67;10.45;;;7.50;92.20;;;;;;4987035;28;20034;-73
2021/04/05 06:37:16;;;;;;;24.10;10.30;;;7.50;92.30;;;;;;4987466;28;20169;-73
2021/04/05 06:39:45;;;;;;;27.92;10.68;;;7.50;92.50;;;;;;4982901;28;20042;-75
2021/04/05 06:42:45;;;;;;;27.52;10.23;;;7.50;92.50;;;;;;4989266;28;20100;-73
2021/04/05 06:45:23;;;;;;;21.27;10.13;;;7.50;92.60;;;;;;4987735;28;20035;-71
2021/04/05 06:48:21;;;;;;;24.02;10.80;;;7.60;92.50;;;;;;4980363;28;20063;-73
2021/04/05 06:51:01;;;;;;;27.65;10.57;;;7.60;92.60;;;;;;4984263;28;20046;-72
2021/04/05 06:53:57;;;;;;;28.10;11.27;;;7.70;92.50;;;;;;4985139;28;20472;-73
2021/04/05 06:56:44;;;;;;;25.13;11.70;;;7.70;92.60;;;;;;4985368;28;20022;-72
2021/04/05 06:59:40;;;;;;;24.20;10.52;;;7.70;92.60;;;;;;4981081;28;20033;-73
2021/04/05 07:02:50;;;;;;;22.13;10.57;;;7.70;93.10;;;;;;4982546;28;20030;-73
2021/04/05 07:05:44;;;;;;;23.10;10.88;;;7.80;93.70;;;;;;4984660;28;20113;-74
2021/04/05 07:08:20;;;;;;;24.23;10.25;;;7.70;94.30;;;;;;4975339;28;20442;-73
2021/04/05 07:11:08;;;;;;;24.73;11.40;;;7.80;95.10;;;;;;4981633;28;20573;-73
2021/04/05 07:13:58;;;;;;;27.27;11.25;;;7.80;95.50;;;;;;4983658;28;20069;-75
2021/04/05 07:16:51;;;;;;;24.15;10.65;;;7.70;95.80;;;;;;4983215;28;20034;-72
2021/04/05 07:19:33;;;;;;;29.95;11.73;;;7.70;96.40;;;;;;4988853;28;20097;-75
2021/04/05 07:22:23;;;;;;;25.15;11.15;;;7.70;97.00;;;;;;4985111;28;20120;-75
2021/04/05 07:25:29;;;;;;;25.13;10.98;;;7.70;97.30;;;;;;4982899;28;20472;-76
2021/04/05 07:28:24;;;;;;;28.38;11.75;;;7.70;99.10;;;;;;4983129;28;20022;-74
2021/04/05 07:31:05;;;;;;;28.83;12.20;;;7.60;99.50;;;;;;4977816;28;20483;-73
2021/04/05 07:33:40;;;;;;;30.85;11.20;;;7.70;99.90;;;;;;4976770;28;20379;-74
2021/04/05 07:36:41;;;;;;;25.52;11.00;;;7.70;99.90;;;;;;4985234;28;20566;-73
2021/04/05 07:39:31;;;;;;;21.77;10.48;;;7.70;99.90;;;;;;4985328;28;20038;-74
2021/04/05 07:42:26;;;;;;;31.05;11.60;;;7.60;99.90;;;;;;4977185;28;20034;-74
2021/04/05 07:44:56;;;;;;;25.77;11.65;;;7.60;99.90;;;;;;4982117;28;20045;-74
2021/04/05 07:47:34;;;;;;;34.17;12.48;;;7.50;99.90;;;;;;4982835;28;20406;-74
2021/04/05 07:50:14;;;;;;;31.52;12.30;;;7.50;99.90;;;;;;4980164;28;20117;-72
2021/04/05 07:53:02;;;;;;;26.52;11.77;;;7.50;99.90;;;;;;4982090;28;20042;-71
2021/04/05 07:55:28;;;;;;;28.25;11.73;;;7.50;99.90;;;;;;4987437;28;20027;-73
2021/04/05 07:58:06;;;;;;;22.63;11.35;;;7.40;99.90;;;;;;4980967;28;20029;-73
2021/04/05 08:01:02;;;;;;;26.15;11.30;;;7.40;99.90;;;;;;4982251;28;20597;-73
2021/04/05 08:04:02;;;;;;;22.17;11.30;;;7.30;99.90;;;;;;4981548;28;20038;-74
2021/04/05 08:06:38;;;;;;;24.38;10.77;;;7.20;99.90;;;;;;4982382;28;20135;-72
2021/04/05 08:09:10;;;;;;;29.65;12.70;;;7.20;99.90;;;;;;4984001;28;20053;-78
2021/04/05 08:12:17;;;;;;;26.77;11.48;;;7.20;99.90;;;;;;4980600;28;20057;-71
2021/04/05 08:15:07;;;;;;;25.30;11.73;;;7.10;99.90;;;;;;4988033;28;20471;-73
2021/04/05 08:17:42;;;;;;;24.95;11.45;;;7.10;99.90;;;;;;4980146;28;20037;-74
2021/04/05 08:20:34;;;;;;;34.33;11.52;;;7.10;99.90;;;;;;4985850;28;20113;-78
2021/04/05 08:23:21;;;;;;;;;;;7.00;99.90;;;;;;4989962;28;20035;-75
2021/04/05 08:26:06;;;;;;;26.77;12.25;;;7.00;99.90;;;;;;4987862;28;20020;-75
2021/04/05 08:29:11;;;;;;;28.30;11.60;;;7.00;99.90;;;;;;4987383;28;20026;-70
2021/04/05 08:32:13;;;;;;;38.38;12.82;;;6.90;99.90;;;;;;4907394;29;20044;-73
2021/04/05 08:35:14;;;;;;;32.17;12.75;;;7.00;99.90;;;;;;4985341;28;20101;-72
2021/04/05 08:38:12;;;;;;;30.17;11.73;;;6.90;99.90;;;;;;4985523;28;20018;-71
2021/04/05 08:40:48;;;;;;;31.48;12.15;;;6.90;99.90;;;;;;4987780;28;20421;-71
2021/04/05 08:43:47;;;;;;;32.25;11.98;;;6.90;99.90;;;;;;4983731;28;20070;-70
2021/04/05 08:46:18;;;;;;;31.92;12.63;;;6.90;99.90;;;;;;4987870;28;20159;-73
2021/04/05 08:48:46;;;;;;;31.27;11.82;;;6.90;99.90;;;;;;4986798;28;20026;-70
2021/04/05 08:51:20;;;;;;;25.40;12.00;;;6.90;99.90;;;;;;4985402;28;20061;-70
2021/04/05 08:53:54;;;;;;;30.75;12.20;;;6.90;99.90;;;;;;4990464;28;20042;-70
2021/04/05 08:56:27;;;;;;;30.42;13.00;;;7.00;99.90;;;;;;4992701;28;20081;-70
2021/04/05 08:59:20;;;;;;;28.58;11.65;;;7.00;99.90;;;;;;4992224;28;20030;-69
2021/04/05 09:01:49;;;;;;;30.15;12.15;;;7.00;99.90;;;;;;4981296;28;20030;-70
2021/04/05 09:04:22;;;;;;;32.50;12.48;;;7.00;99.90;;;;;;4989465;28;20030;-70
2021/04/05 09:07:12;;;;;;;31.58;12.30;;;7.00;99.90;;;;;;4988095;28;20034;-70
2021/04/05 09:09:39;;;;;;;29.95;12.45;;;7.00;99.90;;;;;;4985229;28;20037;-71
2021/04/05 09:12:06;;;;;;;24.10;11.63;;;7.00;99.90;;;;;;4980592;28;20030;-70
2021/04/05 09:14:37;;;;;;;29.48;12.82;;;7.00;99.90;;;;;;4987361;28;20057;-70
2021/04/05 09:17:27;;;;;;;25.27;11.80;;;7.00;99.90;;;;;;4986707;28;20421;-70
2021/04/05 09:20:21;;;;;;;28.73;12.27;;;6.90;99.90;;;;;;4975305;28;20050;-70
2021/04/05 09:23:11;;;;;;;13.60;6.63;;;6.90;99.90;;;;;;4980769;28;20054;-71
2021/04/05 09:25:59;;;;;;;12.05;5.40;;;6.80;99.90;;;;;;4991090;28;20034;-69
2021/04/05 09:28:37;;;;;;;9.50;3.40;;;6.70;99.90;;;;;;4990160;28;20658;-70
2021/04/05 09:31:09;;;;;;;6.45;3.35;;;6.60;99.90;;;;;;4991790;28;20037;-71
2021/04/05 09:33:55;;;;;;;5.38;2.00;;;6.60;99.90;;;;;;4984227;28;20034;-70
2021/04/05 09:36:50;;;;;;;2.40;1.40;;;6.60;99.90;;;;;;4987534;28;20026;-70
2021/04/05 09:39:49;;;;;;;4.22;1.13;;;6.60;99.90;;;;;;4990895;28;20101;-70
2021/04/05 09:43:04;;;;;;;1.38;0.98;;;6.60;99.90;;;;;;4991274;28;20019;-70
2021/04/05 09:46:08;;;;;;;1.52;1.15;;;6.60;99.90;;;;;;4977561;28;20135;-70
2021/04/05 09:48:48;;;;;;;1.30;0.93;;;6.60;99.90;;;;;;4991655;28;20030;-70
2021/04/05 09:51:43;;;;;;;2.13;1.17;;;6.60;99.90;;;;;;4988501;28;20046;-70
2021/04/05 09:54:42;;;;;;;1.00;0.90;;;6.60;99.90;;;;;;4983563;28;20382;-70
2021/04/05 09:57:19;;;;;;;0.93;0.85;;;6.60;99.90;;;;;;4982344;28;20026;-71
2021/04/05 09:59:50;;;;;;;1.20;1.02;;;6.60;99.90;;;;;;4970039;28;20030;-70
2021/04/05 10:02:25;;;;;;;2.60;1.92;;;6.60;99.90;;;;;;4990099;28;20030;-70
2021/04/05 10:04:51;;;;;;;2.40;1.52;;;6.70;99.90;;;;;;4981777;28;20038;-70
2021/04/05 10:07:19;;;;;;;2.00;1.55;;;6.80;99.90;;;;;;4989228;28;20030;-71
2021/04/05 10:09:48;;;;;;;2.03;1.70;;;6.80;99.90;;;;;;4984579;28;20469;-71
2021/04/05 10:12:15;;;;;;;1.25;1.00;;;6.70;99.90;;;;;;4983261;28;20478;-70
2021/04/05 10:14:44;;;;;;;1.38;1.00;;;6.80;99.90;;;;;;4989187;28;20052;-70
2021/04/05 10:17:11;;;;;;;1.10;0.75;;;6.80;99.90;;;;;;4990360;28;20041;-71
2021/04/05 10:19:40;;;;;;;1.00;0.60;;;6.80;99.90;;;;;;4971572;28;20402;-71
2021/04/05 10:22:18;;;;;;;1.20;1.02;;;6.80;99.90;;;;;;4971722;28;20031;-71
2021/04/05 10:24:46;;;;;;;1.40;0.90;;;6.80;99.90;;;;;;4985720;28;20520;-71
2021/04/05 10:27:15;;;;;;;2.00;1.00;;;6.80;99.90;;;;;;4990068;28;20034;-71
2021/04/05 10:29:42;;;;;;;1.05;0.70;;;6.90;99.90;;;;;;4982741;28;20100;-72
2021/04/05 10:32:12;;;;;;;0.68;0.68;;;7.00;99.90;;;;;;4983374;28;20034;-72
2021/04/05 10:34:44;;;;;;;2.03;0.60;;;7.00;99.90;;;;;;4986688;28;20071;-71
2021/04/05 10:37:15;;;;;;;0.77;0.57;;;7.00;99.90;;;;;;4971738;28;20121;-72
2021/04/05 10:39:51;;;;;;;0.70;0.70;;;7.00;99.90;;;;;;4990781;28;20033;-72
2021/04/05 10:42:30;;;;;;;1.02;0.80;;;7.10;99.90;;;;;;4988417;28;20034;-72
2021/04/05 10:45:15;;;;;;;0.70;0.60;;;7.10;99.90;;;;;;4978269;28;20034;-72
2021/04/05 10:48:03;;;;;;;0.65;0.65;;;7.10;99.90;;;;;;4979372;28;20030;-71
2021/04/05 10:50:32;;;;;;;0.77;0.60;;;7.20;99.90;;;;;;4986866;28;20116;-73
2021/04/05 10:53:13;;;;;;;1.50;0.70;;;7.20;99.90;;;;;;4986262;28;20070;-72
2021/04/05 10:55:44;;;;;;;1.33;0.93;;;7.10;99.90;;;;;;4978750;28;20023;-72
2021/04/05 10:58:14;;;;;;;1.80;0.80;;;7.20;99.90;;;;;;4986191;28;20062;-74
2021/04/05 11:00:41;;;;;;;1.50;0.70;;;7.20;99.90;;;;;;4980080;28;20516;-73
2021/04/05 11:03:13;;;;;;;0.88;0.70;;;7.10;99.90;;;;;;4988695;28;20038;-75
2021/04/05 11:05:40;;;;;;;1.77;1.00;;;7.10;99.90;;;;;;4985373;28;20037;-76
2021/04/05 11:08:07;;;;;;;2.25;1.42;;;7.00;99.90;;;;;;4987178;28;20506;-74
2021/04/05 11:10:36;;;;;;;0.95;0.80;;;7.00;99.90;;;;;;4987097;28;20038;-77
2021/04/05 11:13:04;;;;;;;1.10;0.57;;;6.90;99.90;;;;;;4986306;28;20115;-76
2021/04/05 11:15:31;;;;;;;1.88;0.88;;;6.90;99.90;;;;;;4981824;28;20030;-75
2021/04/05 11:18:01;;;;;;;1.00;0.95;;;6.80;99.90;;;;;;4982430;28;20034;-75
2021/04/05 11:20:30;;;;;;;1.23;0.60;;;6.80;99.90;;;;;;4987866;28;20056;-75
2021/04/05 11:23:01;;;;;;;3.08;0.90;;;6.80;99.90;;;;;;4985767;28;20109;-73
2021/04/05 11:25:32;;;;;;;1.55;1.00;;;6.90;99.90;;;;;;4985411;28;20062;-73
2021/04/05 11:28:12;;;;;;;2.53;1.35;;;7.10;99.90;;;;;;4986023;28;20057;-74
2021/04/05 11:30:39;;;;;;;1.40;0.70;;;7.30;99.90;;;;;;4985889;28;20048;-74
2021/04/05 11:33:08;;;;;;;3.28;0.75;;;7.40;99.90;;;;;;4987168;28;20042;-71
2021/04/05 11:35:40;;;;;;;4.45;1.92;;;7.60;99.90;;;;;;4964908;28;20049;-75
2021/04/05 11:38:14;;;;;;;2.50;1.20;;;7.70;99.90;;;;;;4981078;28;20532;-71
2021/04/05 11:40:42;;;;;;;1.30;0.80;;;7.70;99.90;;;;;;4985562;28;20026;-72
2021/04/05 11:43:17;;;;;;;0.80;0.60;;;7.80;99.90;;;;;;4986013;28;20062;-72
2021/04/05 11:46:20;;;;;;;3.10;0.88;;;7.80;97.90;;;;;;4983804;28;20049;-73
2021/04/05 11:49:06;;;;;;;2.20;0.70;;;7.80;96.80;;;;;;4981978;28;20050;-69
2021/04/05 11:51:55;;;;;;;7.53;0.82;;;7.60;96.30;;;;;;4988976;28;20042;-71
2021/04/05 11:54:32;;;;;;;1.48;0.60;;;7.50;96.50;;;;;;4988457;28;20038;-73
2021/04/05 11:57:04;;;;;;;1.42;0.60;;;7.00;99.10;;;;;;4990105;28;20052;-74
2021/04/05 11:59:32;;;;;;;2.75;0.50;;;6.50;99.90;;;;;;4988511;28;20026;-71
2021/04/05 12:02:04;;;;;;;3.88;0.52;;;6.10;99.90;;;;;;4986625;28;20436;-71
2021/04/05 12:04:48;;;;;;;0.40;0.35;;;5.60;99.90;;;;;;4988210;28;20979;-72
2021/04/05 12:07:19;;;;;;;0.40;0.40;;;5.40;99.90;;;;;;4989873;28;20054;-74
2021/04/05 12:10:16;;;;;;;0.47;0.32;;;5.20;99.90;;;;;;4984752;28;20033;-74
2021/04/05 12:12:45;;;;;;;0.45;0.40;;;5.30;99.90;;;;;;4984567;28;20030;-76
2021/04/05 12:15:16;;;;;;;1.17;0.38;;;5.80;99.90;;;;;;4986820;28;20023;-73
2021/04/05 12:17:50;;;;;;;0.73;0.70;;;6.50;99.90;;;;;;4982418;28;20034;-73
2021/04/05 12:20:20;;;;;;;0.47;0.47;;;7.30;99.90;;;;;;4989681;28;20033;-75
2021/04/05 12:23:01;;;;;;;1.48;1.05;;;8.10;99.90;;;;;;4984961;28;20404;-74
2021/04/05 12:25:37;;;;;;;1.15;0.40;;;8.70;99.20;;;;;;4991010;28;20389;-70
2021/04/05 12:28:05;;;;;;;0.40;0.30;;;9.50;98.50;;;;;;4976809;28;20038;-73
2021/04/05 12:30:32;;;;;;;0.10;0.10;;;10.10;96.60;;;;;;4985670;28;20026;-71
2021/04/05 12:32:59;;;;;;;0.90;0.43;;;10.10;86.90;;;;;;4992019;28;20105;-72
2021/04/05 12:35:26;;;;;;;1.58;0.30;;;9.70;86.40;;;;;;4988312;28;20477;-71
2021/04/05 12:37:58;;;;;;;1.45;0.47;;;9.60;90.20;;;;;;4988609;28;20030;-71
2021/04/05 12:40:28;;;;;;;;;;;9.60;88.10;;;;;;4987520;28;20038;-72
2021/04/05 12:43:00;;;;;;;0.52;0.52;;;9.30;88.10;;;;;;4986819;28;19918;-71
2021/04/05 12:45:28;;;;;;;1.92;1.00;;;9.10;87.40;;;;;;4986985;28;20025;-70
2021/04/05 12:47:55;;;;;;;1.92;1.00;;;8.80;90.20;;;;;;4985016;28;20027;-72
2021/04/05 12:50:30;;;;;;;0.90;0.90;;;8.60;90.00;;;;;;4982461;28;20049;-71
2021/04/05 12:53:02;;;;;;;0.80;0.80;;;8.60;92.40;;;;;;4988977;28;20559;-71
2021/04/05 12:55:29;;;;;;;0.93;0.88;;;8.60;89.10;;;;;;4989701;28;20105;-70
2021/04/05 12:57:57;;;;;;;1.83;1.00;;;8.70;90.60;;;;;;4985804;28;20038;-77
2021/04/05 13:00:25;;;;;;;1.10;0.60;;;8.60;88.60;;;;;;4987796;28;20489;-74
2021/04/05 13:02:59;;;;;;;0.40;0.40;;;8.60;86.30;;;;;;4986309;28;20747;-73
2021/04/05 13:05:40;;;;;;;0.88;0.55;;;8.50;86.60;;;;;;4986950;28;20029;-70
2021/04/05 13:08:25;;;;;;;0.43;0.43;;;8.60;87.40;;;;;;4981501;28;20023;-73
2021/04/05 13:11:14;;;;;;;0.65;0.60;;;8.70;88.10;;;;;;4984685;28;20034;-73
2021/04/05 13:13:56;;;;;;;0.85;0.30;;;9.20;87.90;;;;;;4986944;28;20022;-71
2021/04/05 13:16:32;;;;;;;1.85;0.50;;;9.70;81.20;;;;;;4974025;28;20023;-71
2021/04/05 13:19:01;;;;;;;0.60;0.60;;;10.50;84.40;;;;;;4986567;28;20026;-71
2021/04/05 13:21:34;;;;;;;0.73;0.63;;;11.20;79.30;;;;;;4993083;28;20035;-71
2021/04/05 13:24:04;;;;;;;3.05;0.70;;;12.00;74.80;;;;;;4973217;28;20402;-71
2021/04/05 13:26:38;;;;;;;0.50;0.50;;;12.30;68.30;;;;;;4993617;28;20057;-71
2021/04/05 13:29:05;;;;;;;0.50;0.30;;;12.50;66.40;;;;;;4993922;28;20072;-72
2021/04/05 13:31:34;;;;;;;0.57;0.57;;;12.20;66.00;;;;;;4994783;28;20467;-73